Portada
METAR-TAF:

METAR-TAF

Aeropuertos :

Teherán, Irán

Aeropuerto Internacional de Mehrabad

latitud: 35-41N, longitud: 051-21E, altitud: 1204 m

Observación

El informe se hizo hace 44 minutos, a las 03:30 UTC
Viento 4 kt del norte
Temperatura 22°C
Humedad 25%
Presión 1020 hPa
Visibilidad 10 km o más
sin nubes por debajo de 1500 m y sin presencia de cumulonimbus.

METAR: OIII 250330Z 01004KT CAVOK 22/01 Q1020 A3013 NOSIG

Hora: 07:44 (04:14 UTC)

Pronóstico

El informe se hizo hace 5 horas y 14 minutos, a las 23:00 UTC
Pronóstico válido del 25 a las 00 UTC al 26 a las 06 UTC
Viento 8 kt del este-sureste
Visibilidad: 7000 m
Escasas nubes a una altura de 4000 ft
Nubes dispersas a una altura de 10000 ft

TAF: OIII 242300Z 2500/2606 12004MPS 7000 FEW040 SCT100

Observaciones y pronósticos meteorológicos de más de 4000 aeropuertos (mensajes METAR y TAF).

Los puntos amarillos y rojos representan las estaciones disponibles.

Ponga el ratón en el punto deseado para ver el nombre de la estación.

Haga clic para ver las observaciones y los pronósticos meteorológicos.

Para cambiar el mapa : haga clic en los botones verdes con una cruz de color negro para hacer un zoom, en el botón verde con un guión para alejar o en las flechas verdes para mapas adyacentes.


METAR-TAF: